createdAt,value
2018-04-29T00:02:02.262Z,71.60
2018-04-29T00:04:28.855Z,72.50
2018-04-29T00:06:55.120Z,72.50
2018-04-29T00:09:21.315Z,71.90
2018-04-29T00:11:47.552Z,71.20
2018-04-29T00:14:14.290Z,71.30
2018-04-29T00:16:40.501Z,69.80
2018-04-29T00:19:06.720Z,70.40
2018-04-29T00:21:32.967Z,70.40
2018-04-29T00:23:59.206Z,70.10
2018-04-29T00:26:25.416Z,70.30
2018-04-29T00:28:51.668Z,70.10
2018-04-29T00:31:18.675Z,70.00
2018-04-29T00:33:44.894Z,69.70
2018-04-29T00:36:11.153Z,70.50
2018-04-29T00:38:37.458Z,70.40
2018-04-29T00:41:03.683Z,70.50
2018-04-29T00:43:29.915Z,69.70
2018-04-29T00:45:56.154Z,69.80
2018-04-29T00:48:22.405Z,69.60
2018-04-29T00:50:48.614Z,69.40
2018-04-29T00:53:14.932Z,69.50
2018-04-29T00:55:41.147Z,70.00
2018-04-29T00:58:07.371Z,69.60
2018-04-29T01:00:33.665Z,69.50
2018-04-29T01:02:59.903Z,69.60
2018-04-29T01:05:26.124Z,70.10
2018-04-29T01:07:52.369Z,70.20
2018-04-29T01:10:18.605Z,68.20
2018-04-29T01:12:44.799Z,67.80
2018-04-29T01:15:11.010Z,68.80
2018-04-29T01:17:37.206Z,68.50
2018-04-29T01:20:03.435Z,67.30
2018-04-29T01:22:29.655Z,67.30
2018-04-29T01:24:55.950Z,67.60
2018-04-29T01:27:23.023Z,65.90
2018-04-29T01:29:49.227Z,65.90
2018-04-29T01:32:15.934Z,65.60
2018-04-29T01:34:42.119Z,65.40
2018-04-29T01:37:08.355Z,65.40
2018-04-29T01:39:34.570Z,65.80
2018-04-29T01:42:00.789Z,65.50
2018-04-29T01:44:27.396Z,64.70
2018-04-29T01:46:54.529Z,64.70
2018-04-29T01:49:20.766Z,64.80
2018-04-29T01:51:47.484Z,65.70
2018-04-29T01:54:13.698Z,66.50
2018-04-29T01:56:39.931Z,66.00
2018-04-29T01:59:06.693Z,65.70
2018-04-29T02:01:32.889Z,65.30
2018-04-29T02:03:59.085Z,65.30
2018-04-29T02:06:25.581Z,64.50
2018-04-29T02:08:52.781Z,64.10
2018-04-29T02:11:18.977Z,64.30
2018-04-29T02:13:45.199Z,63.80
2018-04-29T02:16:11.398Z,65.10
2018-04-29T02:18:37.624Z,64.80
2018-04-29T02:21:03.881Z,64.30
2018-04-29T02:23:30.109Z,64.40
2018-04-29T02:25:56.353Z,63.00
2018-04-29T02:28:22.594Z,64.20
2018-04-29T02:30:48.823Z,63.60
2018-04-29T02:33:15.032Z,63.80
2018-04-29T02:35:41.249Z,64.30
2018-04-29T02:38:07.486Z,64.20
2018-04-29T02:40:33.705Z,64.40
2018-04-29T02:42:59.939Z,64.50
2018-04-29T02:45:26.176Z,64.40
2018-04-29T02:47:52.371Z,64.70
2018-04-29T02:50:19.379Z,64.80
2018-04-29T02:52:45.947Z,65.20
2018-04-29T02:55:12.152Z,65.30
2018-04-29T02:57:38.431Z,65.30
2018-04-29T03:00:04.636Z,65.50
2018-04-29T03:02:33.013Z,66.10
2018-04-29T03:04:59.269Z,65.90
2018-04-29T03:07:26.448Z,66.00
2018-04-29T03:09:53.072Z,66.60
2018-04-29T03:12:19.291Z,66.60
2018-04-29T03:14:45.536Z,66.80
2018-04-29T03:17:11.755Z,66.70
2018-04-29T03:19:37.941Z,66.50
2018-04-29T03:22:04.169Z,66.80
2018-04-29T03:24:30.396Z,66.90
2018-04-29T03:26:57.437Z,67.00
2018-04-29T03:29:23.641Z,67.00
2018-04-29T03:31:49.862Z,66.90
2018-04-29T03:34:16.096Z,66.70
2018-04-29T03:36:42.303Z,67.20
2018-04-29T03:39:08.511Z,67.50
2018-04-29T03:41:34.730Z,67.60
2018-04-29T03:44:00.949Z,67.60
2018-04-29T03:46:27.163Z,68.00
2018-04-29T03:48:53.393Z,68.10
2018-04-29T03:51:19.631Z,68.40
2018-04-29T03:53:45.823Z,68.30
2018-04-29T03:56:12.067Z,68.10
2018-04-29T03:58:59.112Z,67.80
2018-04-29T04:01:37.452Z,68.20
2018-04-29T04:04:03.697Z,68.90
2018-04-29T04:06:30.286Z,69.20
2018-04-29T04:08:56.526Z,69.20
2018-04-29T04:11:22.748Z,69.40
2018-04-29T04:13:48.939Z,69.50
2018-04-29T04:16:15.179Z,69.70
2018-04-29T04:18:41.387Z,70.00
2018-04-29T04:21:07.595Z,70.10
2018-04-29T04:23:33.828Z,70.50
2018-04-29T04:26:00.032Z,70.60
2018-04-29T04:28:26.251Z,70.40
2018-04-29T04:30:53.160Z,70.70
2018-04-29T04:33:19.414Z,70.60
2018-04-29T04:35:45.635Z,70.70
2018-04-29T04:38:11.873Z,70.80
2018-04-29T04:40:38.082Z,70.50
2018-04-29T04:43:04.280Z,70.70
2018-04-29T04:45:30.504Z,70.40
2018-04-29T04:47:56.713Z,70.10
2018-04-29T04:50:22.935Z,69.90
2018-04-29T04:52:49.158Z,70.20
2018-04-29T04:55:15.365Z,70.10
2018-04-29T04:57:41.618Z,69.70
2018-04-29T05:00:07.849Z,70.10
2018-04-29T05:02:34.089Z,70.00
2018-04-29T05:05:00.307Z,69.20
2018-04-29T05:07:26.579Z,70.20
2018-04-29T05:09:52.752Z,70.70
2018-04-29T05:12:18.981Z,70.50
2018-04-29T05:14:45.213Z,70.10
2018-04-29T05:17:11.410Z,69.40
2018-04-29T05:19:37.638Z,69.60
2018-04-29T05:22:03.892Z,69.80
2018-04-29T05:24:30.133Z,70.40
2018-04-29T05:26:56.354Z,70.50
2018-04-29T05:29:22.568Z,70.10
2018-04-29T05:31:48.814Z,69.90
2018-04-29T05:34:16.019Z,68.70
2018-04-29T05:36:42.239Z,68.40
2018-04-29T05:39:08.952Z,69.40
2018-04-29T05:41:35.182Z,69.60
2018-04-29T05:44:01.405Z,68.50
2018-04-29T05:46:27.635Z,68.40
2018-04-29T05:48:53.875Z,69.00
2018-04-29T05:51:20.123Z,67.40
2018-04-29T05:53:46.322Z,68.90
2018-04-29T05:56:12.577Z,66.50
2018-04-29T05:58:38.811Z,67.30
2018-04-29T06:01:05.102Z,66.80
2018-04-29T06:03:32.184Z,67.00
2018-04-29T06:05:58.399Z,66.30
2018-04-29T06:08:24.614Z,65.80
2018-04-29T06:10:50.835Z,65.40
2018-04-29T06:13:17.460Z,64.40
2018-04-29T06:15:43.719Z,64.40
2018-04-29T06:18:11.667Z,63.90
2018-04-29T06:20:38.267Z,64.30
2018-04-29T06:23:04.448Z,64.30
2018-04-29T06:25:30.677Z,63.50
2018-04-29T06:27:57.852Z,64.30
2018-04-29T06:30:24.062Z,64.20
2018-04-29T06:32:50.302Z,64.60
2018-04-29T06:35:16.535Z,61.80
2018-04-29T06:37:43.361Z,63.00
2018-04-29T06:40:09.606Z,62.70
2018-04-29T06:42:35.917Z,62.40
2018-04-29T06:45:02.145Z,62.00
2018-04-29T06:47:28.387Z,62.40
2018-04-29T06:49:54.600Z,62.10
2018-04-29T06:52:20.814Z,62.70
2018-04-29T06:54:47.044Z,62.00
2018-04-29T06:57:13.640Z,61.60
2018-04-29T06:59:39.883Z,61.60
2018-04-29T07:02:06.158Z,61.80
2018-04-29T07:04:32.437Z,62.30
2018-04-29T07:06:58.668Z,62.80
2018-04-29T07:09:25.830Z,62.40
2018-04-29T07:11:52.092Z,62.10
2018-04-29T07:14:18.345Z,61.70
2018-04-29T07:16:46.250Z,62.00
2018-04-29T07:19:12.468Z,61.60
2018-04-29T07:21:38.681Z,62.00
2018-04-29T07:24:04.924Z,62.40
2018-04-29T07:26:31.153Z,61.90
2018-04-29T07:28:57.351Z,61.90
2018-04-29T07:31:23.582Z,61.80
2018-04-29T07:33:49.815Z,62.40
2018-04-29T07:36:16.129Z,62.30
2018-04-29T07:38:42.354Z,62.30
2018-04-29T07:41:08.552Z,61.40
2018-04-29T07:43:35.166Z,63.10
2018-04-29T07:46:01.375Z,63.10
2018-04-29T07:48:27.590Z,62.90
2018-04-29T07:50:53.907Z,61.80
2018-04-29T07:53:20.459Z,62.30
2018-04-29T07:55:46.693Z,62.30
2018-04-29T07:58:12.907Z,61.80
2018-04-29T08:00:39.187Z,62.50
2018-04-29T08:03:05.831Z,61.60
2018-04-29T08:05:32.469Z,62.30
2018-04-29T08:07:59.567Z,61.60
2018-04-29T08:10:25.834Z,61.60
2018-04-29T08:12:52.122Z,61.60
2018-04-29T08:15:18.419Z,61.50
2018-04-29T08:17:44.648Z,62.00
2018-04-29T08:20:10.846Z,61.60
2018-04-29T08:22:37.172Z,62.10
2018-04-29T08:25:03.380Z,62.00
2018-04-29T08:27:29.612Z,61.60
2018-04-29T08:29:55.903Z,61.80
2018-04-29T08:32:22.683Z,61.70
2018-04-29T08:34:48.928Z,63.00
2018-04-29T08:37:15.221Z,61.00
2018-04-29T08:39:41.464Z,62.70
2018-04-29T08:42:07.733Z,60.60
2018-04-29T08:44:34.952Z,61.00
2018-04-29T08:47:01.256Z,61.00
2018-04-29T08:49:27.531Z,61.30
2018-04-29T08:51:53.770Z,61.40
2018-04-29T08:54:20.058Z,60.50
2018-04-29T08:56:46.991Z,61.30
2018-04-29T08:59:13.976Z,60.10
2018-04-29T09:01:40.644Z,60.80
2018-04-29T09:04:07.307Z,59.50
2018-04-29T09:06:34.006Z,59.70
2018-04-29T09:09:01.096Z,61.60
2018-04-29T09:11:27.915Z,61.60
2018-04-29T09:13:54.501Z,60.50
2018-04-29T09:16:20.731Z,60.60
2018-04-29T09:18:47.643Z,60.90
2018-04-29T09:21:13.934Z,61.40
2018-04-29T09:23:40.196Z,60.00
2018-04-29T09:26:06.799Z,59.70
2018-04-29T09:28:33.077Z,59.70
2018-04-29T09:30:59.309Z,59.80
2018-04-29T09:33:25.544Z,60.20
2018-04-29T09:35:51.847Z,61.00
2018-04-29T09:38:18.469Z,58.30
2018-04-29T09:40:44.775Z,58.40
2018-04-29T09:43:10.994Z,57.60
2018-04-29T09:45:37.305Z,57.60
2018-04-29T09:48:03.538Z,56.70
2018-04-29T09:50:29.825Z,57.70
2018-04-29T09:52:56.421Z,60.10
2018-04-29T09:55:22.719Z,60.10
2018-04-29T09:57:49.305Z,59.00
2018-04-29T10:00:15.561Z,59.00
2018-04-29T10:02:47.145Z,58.70
2018-04-29T10:05:13.403Z,58.70
2018-04-29T10:07:40.628Z,59.20
2018-04-29T10:10:06.859Z,57.20
2018-04-29T10:12:33.135Z,57.30
2018-04-29T10:15:00.268Z,54.90
2018-04-29T10:17:26.474Z,56.20
2018-04-29T10:19:52.741Z,56.30
2018-04-29T10:22:19.323Z,56.80
2018-04-29T10:24:45.527Z,56.80
2018-04-29T10:27:11.779Z,54.90
2018-04-29T10:29:37.992Z,54.00
2018-04-29T10:32:04.199Z,54.50
2018-04-29T10:34:30.458Z,53.80
2018-04-29T10:36:56.687Z,53.80
2018-04-29T10:39:22.916Z,53.50
2018-04-29T10:41:49.191Z,53.50
2018-04-29T10:44:15.385Z,51.90
2018-04-29T10:46:41.642Z,51.00
2018-04-29T10:49:07.890Z,53.10
2018-04-29T10:51:34.505Z,52.30
2018-04-29T10:54:00.717Z,52.30
2018-04-29T10:56:26.941Z,51.40
2018-04-29T10:58:53.149Z,49.40
2018-04-29T11:01:19.393Z,45.60
2018-04-29T11:03:45.653Z,43.70
2018-04-29T11:06:11.873Z,40.90
2018-04-29T11:08:38.120Z,38.60
2018-04-29T11:11:04.320Z,37.20
2018-04-29T11:13:30.542Z,35.60
2018-04-29T11:15:56.755Z,37.40
2018-04-29T11:18:23.600Z,37.40
2018-04-29T11:20:49.837Z,35.70
2018-04-29T11:23:16.033Z,36.30
2018-04-29T11:25:42.268Z,35.50
2018-04-29T11:28:08.471Z,34.00
2018-04-29T11:30:35.089Z,35.40
2018-04-29T11:33:01.296Z,35.40
2018-04-29T11:35:27.522Z,35.30
2018-04-29T11:37:53.724Z,36.60
2018-04-29T11:40:20.098Z,36.10
2018-04-29T11:42:46.687Z,38.30
2018-04-29T11:45:12.890Z,36.80
2018-04-29T11:47:39.153Z,35.40
2018-04-29T11:50:05.407Z,36.80
2018-04-29T11:52:31.637Z,36.10
2018-04-29T11:54:57.853Z,36.70
2018-04-29T11:57:24.141Z,35.80
2018-04-29T11:59:50.358Z,36.10
2018-04-29T12:02:16.990Z,36.60
2018-04-29T12:04:43.628Z,35.40
2018-04-29T12:07:10.206Z,36.00
2018-04-29T12:09:36.480Z,36.00
2018-04-29T12:12:02.733Z,35.70
2018-04-29T12:14:29.312Z,35.20
2018-04-29T12:16:55.527Z,35.20
2018-04-29T12:19:21.762Z,35.90
2018-04-29T12:21:48.004Z,34.70
2018-04-29T12:24:14.248Z,34.60
2018-04-29T12:26:40.504Z,34.70
2018-04-29T12:29:07.108Z,35.90
2018-04-29T12:31:33.354Z,35.90
2018-04-29T12:33:59.602Z,37.30
2018-04-29T12:36:26.245Z,39.90
2018-04-29T12:38:52.835Z,40.80
2018-04-29T12:41:19.077Z,40.70
2018-04-29T12:43:45.310Z,37.80
2018-04-29T12:46:11.515Z,38.90
2018-04-29T12:48:37.796Z,39.10
2018-04-29T12:51:04.760Z,39.00
2018-04-29T12:53:31.049Z,36.10
2018-04-29T12:55:57.274Z,38.00
2018-04-29T12:58:24.876Z,37.30
2018-04-29T13:00:51.094Z,37.30
2018-04-29T13:03:17.346Z,37.10
2018-04-29T13:05:43.599Z,38.50
2018-04-29T13:08:09.844Z,39.00
2018-04-29T13:10:36.077Z,38.20
2018-04-29T13:13:02.786Z,38.10
2018-04-29T13:15:29.028Z,38.10
2018-04-29T13:17:55.262Z,37.10
2018-04-29T13:20:21.493Z,35.30
2018-04-29T13:22:47.733Z,34.90
2018-04-29T13:25:14.310Z,37.20
2018-04-29T13:27:40.529Z,37.20
2018-04-29T13:30:06.770Z,38.00
2018-04-29T13:32:32.985Z,37.70
2018-04-29T13:34:59.201Z,39.20
2018-04-29T13:37:25.475Z,38.70
2018-04-29T13:39:51.695Z,35.80
2018-04-29T13:42:17.956Z,38.00
2018-04-29T13:44:44.209Z,36.00
2018-04-29T13:47:10.835Z,35.10
2018-04-29T13:49:37.436Z,34.70
2018-04-29T13:52:03.680Z,34.70
2018-04-29T13:54:29.872Z,33.80
2018-04-29T13:56:56.079Z,34.20
2018-04-29T13:59:22.320Z,36.20
2018-04-29T14:01:48.604Z,35.10
2018-04-29T14:04:14.780Z,32.60
2018-04-29T14:06:41.002Z,32.50
2018-04-29T14:09:07.227Z,34.40
2018-04-29T14:11:33.458Z,34.40
2018-04-29T14:14:00.012Z,34.90
2018-04-29T14:16:26.262Z,38.00
2018-04-29T14:18:52.551Z,39.40
2018-04-29T14:21:18.773Z,38.90
2018-04-29T14:23:44.987Z,39.70
2018-04-29T14:26:12.715Z,42.60
2018-04-29T14:28:38.978Z,42.60
2018-04-29T14:31:05.229Z,41.20
2018-04-29T14:33:31.456Z,40.40
2018-04-29T14:35:58.452Z,40.60
2018-04-29T14:38:24.680Z,41.20
2018-04-29T14:40:54.719Z,42.00
2018-04-29T14:43:21.333Z,42.70
2018-04-29T14:45:47.537Z,42.70
2018-04-29T14:48:13.773Z,43.60
2018-04-29T14:50:40.050Z,45.50
2018-04-29T14:53:06.607Z,45.60
2018-04-29T14:55:32.851Z,45.50
2018-04-29T14:57:59.912Z,46.80
2018-04-29T15:00:26.125Z,43.90
2018-04-29T15:02:52.389Z,40.50
2018-04-29T15:05:18.634Z,41.00
2018-04-29T15:07:45.260Z,40.20
2018-04-29T15:10:11.513Z,40.20
2018-04-29T15:12:38.923Z,38.30
2018-04-29T15:15:05.173Z,38.70
2018-04-29T15:17:31.385Z,41.50
2018-04-29T15:19:58.669Z,39.90
2018-04-29T15:22:25.325Z,43.20
2018-04-29T15:24:55.071Z,43.20
2018-04-29T15:27:21.308Z,42.30
2018-04-29T15:29:47.535Z,43.80
2018-04-29T15:32:13.849Z,45.50
2018-04-29T15:34:40.074Z,44.50
2018-04-29T15:37:06.308Z,43.70
2018-04-29T15:39:32.622Z,45.40
2018-04-29T15:41:58.859Z,46.30
2018-04-29T15:44:25.155Z,44.90
2018-04-29T15:46:51.366Z,45.70
2018-04-29T15:49:17.578Z,42.30
2018-04-29T15:51:43.789Z,42.20
2018-04-29T15:54:10.065Z,40.90
2018-04-29T15:56:36.277Z,39.70
2018-04-29T15:59:02.588Z,41.20
2018-04-29T16:01:28.835Z,37.80
2018-04-29T16:03:55.484Z,39.70
2018-04-29T16:06:21.759Z,39.70
2018-04-29T16:08:47.941Z,38.30
2018-04-29T16:11:16.297Z,35.70
2018-04-29T16:13:42.524Z,35.70
2018-04-29T16:16:08.723Z,38.60
2018-04-29T16:18:34.918Z,38.40
2018-04-29T16:21:01.238Z,35.60
2018-04-29T16:23:27.497Z,35.50
2018-04-29T16:25:53.703Z,36.70
2018-04-29T16:28:20.014Z,36.00
2018-04-29T16:30:47.656Z,37.20
2018-04-29T16:33:15.318Z,37.30
2018-04-29T16:35:41.646Z,37.50
2018-04-29T16:38:07.982Z,43.30
2018-04-29T16:40:34.176Z,44.10
2018-04-29T16:43:00.490Z,41.40
2018-04-29T16:45:27.687Z,39.40
2018-04-29T16:47:53.907Z,40.60
2018-04-29T16:50:20.150Z,40.10
2018-04-29T16:52:46.376Z,40.90
2018-04-29T16:55:13.610Z,42.10
2018-04-29T16:57:39.867Z,41.50
2018-04-29T17:00:06.151Z,42.80
2018-04-29T17:02:32.366Z,42.20
2018-04-29T17:04:59.000Z,43.60
2018-04-29T17:07:25.236Z,44.90
2018-04-29T17:09:51.510Z,42.90
2018-04-29T17:12:17.810Z,45.20
2018-04-29T17:14:44.036Z,43.30
2018-04-29T17:17:10.318Z,45.30
2018-04-29T17:19:36.566Z,44.90
2018-04-29T17:22:02.813Z,45.10
2018-04-29T17:24:29.046Z,46.40
2018-04-29T17:26:55.262Z,45.00
2018-04-29T17:29:21.505Z,45.90
2018-04-29T17:31:47.744Z,46.20
2018-04-29T17:34:13.957Z,47.00
2018-04-29T17:36:40.230Z,46.80
2018-04-29T17:39:06.438Z,46.60
2018-04-29T17:41:32.718Z,47.00
2018-04-29T17:43:58.957Z,48.20
2018-04-29T17:46:25.183Z,46.90
2018-04-29T17:48:51.429Z,47.00
2018-04-29T17:51:17.664Z,47.30
2018-04-29T17:53:43.871Z,46.80
2018-04-29T17:56:10.231Z,48.50
2018-04-29T17:58:36.419Z,48.20
2018-04-29T18:01:02.663Z,49.10
2018-04-29T18:03:28.984Z,49.00
2018-04-29T18:05:56.235Z,48.90
2018-04-29T18:08:23.344Z,49.00
2018-04-29T18:10:50.923Z,49.60
2018-04-29T18:13:17.748Z,49.60
2018-04-29T18:15:44.008Z,49.60
2018-04-29T18:18:10.314Z,50.00
2018-04-29T18:20:36.907Z,50.40
2018-04-29T18:23:03.194Z,50.40
2018-04-29T18:25:29.436Z,50.40
2018-04-29T18:27:55.636Z,50.70
2018-04-29T18:30:21.879Z,50.90
2018-04-29T18:32:48.137Z,51.40
2018-04-29T18:35:14.401Z,51.10
2018-04-29T18:37:40.636Z,51.40
2018-04-29T18:40:06.926Z,51.60
2018-04-29T18:42:33.222Z,51.60
2018-04-29T18:44:59.477Z,51.70
2018-04-29T18:47:25.756Z,52.90
2018-04-29T18:49:52.026Z,52.80
2018-04-29T18:52:18.256Z,53.30
2018-04-29T18:54:44.528Z,53.70
2018-04-29T18:57:10.780Z,53.60
2018-04-29T18:59:37.408Z,54.50
2018-04-29T19:02:04.148Z,54.90
2018-04-29T19:04:30.397Z,54.90
2018-04-29T19:06:56.681Z,54.60
2018-04-29T19:09:22.900Z,55.10
2018-04-29T19:11:49.147Z,55.50
2018-04-29T19:14:15.423Z,55.90
2018-04-29T19:16:41.664Z,56.30
2018-04-29T19:19:07.943Z,56.60
2018-04-29T19:21:34.304Z,57.20
2018-04-29T19:24:00.697Z,57.60
2018-04-29T19:26:26.922Z,57.40
2018-04-29T19:28:53.143Z,58.00
2018-04-29T19:31:19.426Z,58.40
2018-04-29T19:33:45.654Z,58.50
2018-04-29T19:36:12.887Z,58.50
2018-04-29T19:38:39.539Z,58.80
2018-04-29T19:41:06.200Z,59.40
2018-04-29T19:43:33.167Z,59.40
2018-04-29T19:45:59.409Z,59.70
2018-04-29T19:48:25.710Z,59.90
2018-04-29T19:50:52.818Z,60.20
2018-04-29T19:53:19.447Z,60.40
2018-04-29T19:55:46.088Z,61.00
2018-04-29T19:58:12.693Z,61.30
2018-04-29T20:00:38.936Z,61.30
2018-04-29T20:03:05.215Z,62.10
2018-04-29T20:05:31.504Z,62.00
2018-04-29T20:07:57.733Z,62.00
2018-04-29T20:10:24.054Z,61.70
2018-04-29T20:12:50.304Z,61.10
2018-04-29T20:15:16.921Z,60.00
2018-04-29T20:17:43.190Z,59.90
2018-04-29T20:20:09.414Z,60.50
2018-04-29T20:22:35.643Z,59.70
2018-04-29T20:25:02.026Z,59.40
2018-04-29T20:27:28.259Z,60.40
2018-04-29T20:29:54.532Z,61.30
2018-04-29T20:32:33.562Z,61.80
2018-04-29T20:34:59.823Z,61.60
2018-04-29T20:37:26.083Z,62.30
2018-04-29T20:39:52.333Z,62.90
2018-04-29T20:42:18.947Z,63.70
2018-04-29T20:44:45.136Z,63.70
2018-04-29T20:47:11.652Z,64.60
2018-04-29T20:49:37.833Z,64.90
2018-04-29T20:52:04.131Z,65.60
2018-04-29T20:54:30.408Z,66.40
2018-04-29T20:56:57.064Z,66.80
2018-04-29T20:59:23.931Z,66.80
2018-04-29T21:01:50.219Z,66.60
2018-04-29T21:04:16.917Z,67.20
2018-04-29T21:06:43.230Z,67.20
2018-04-29T21:09:09.486Z,67.40
2018-04-29T21:11:36.531Z,67.20
2018-04-29T21:14:02.784Z,67.10
2018-04-29T21:16:29.113Z,67.00
2018-04-29T21:18:55.348Z,67.00
2018-04-29T21:21:21.640Z,67.20
2018-04-29T21:23:47.852Z,67.70
2018-04-29T21:26:14.079Z,68.00
2018-04-29T21:28:40.317Z,67.60
2018-04-29T21:31:06.565Z,67.80
2018-04-29T21:33:33.692Z,67.60
2018-04-29T21:35:59.919Z,67.50
2018-04-29T21:38:26.174Z,66.90
2018-04-29T21:40:52.447Z,66.20
2018-04-29T21:43:18.684Z,66.10
2018-04-29T21:45:44.896Z,66.30
2018-04-29T21:48:11.366Z,66.70
2018-04-29T21:50:37.588Z,68.20
2018-04-29T21:53:05.312Z,69.70
2018-04-29T21:55:31.920Z,69.10
2018-04-29T21:57:59.005Z,69.10
2018-04-29T22:00:25.259Z,68.60
2018-04-29T22:02:54.481Z,68.20
2018-04-29T22:05:20.691Z,68.80
2018-04-29T22:07:46.928Z,68.60
2018-04-29T22:10:13.160Z,69.00
2018-04-29T22:12:39.390Z,69.20
2018-04-29T22:15:05.668Z,68.60
2018-04-29T22:17:32.279Z,67.80
2018-04-29T22:19:58.479Z,67.80
2018-04-29T22:22:24.729Z,67.90
2018-04-29T22:24:50.931Z,67.00
2018-04-29T22:27:17.188Z,66.80
2018-04-29T22:29:43.378Z,67.20
2018-04-29T22:32:09.638Z,67.40
2018-04-29T22:34:35.853Z,67.20
2018-04-29T22:37:02.213Z,67.20
2018-04-29T22:39:28.436Z,66.80
2018-04-29T22:41:54.666Z,66.20
2018-04-29T22:44:20.896Z,67.10
2018-04-29T22:46:47.094Z,67.30
2018-04-29T22:49:13.337Z,67.00
2018-04-29T22:51:39.532Z,67.00
2018-04-29T22:54:05.747Z,66.70
2018-04-29T22:56:31.994Z,67.50
2018-04-29T22:58:58.239Z,67.70
2018-04-29T23:01:24.472Z,67.40
2018-04-29T23:03:50.702Z,67.30
2018-04-29T23:06:16.922Z,66.40
2018-04-29T23:08:43.130Z,67.50
2018-04-29T23:11:09.356Z,67.50
2018-04-29T23:13:35.594Z,64.50
2018-04-29T23:16:01.837Z,62.50
2018-04-29T23:18:28.056Z,63.10
2018-04-29T23:20:55.192Z,63.50
2018-04-29T23:23:21.456Z,62.70
2018-04-29T23:25:47.692Z,61.50
2018-04-29T23:28:13.948Z,61.10
2018-04-29T23:30:40.562Z,61.50
2018-04-29T23:33:06.830Z,61.50
2018-04-29T23:35:33.031Z,61.70
2018-04-29T23:38:01.042Z,61.20
2018-04-29T23:40:27.211Z,61.10
2018-04-29T23:42:53.430Z,61.00
2018-04-29T23:45:19.641Z,60.50
2018-04-29T23:47:45.841Z,61.30
2018-04-29T23:50:12.073Z,62.10
2018-04-29T23:52:38.952Z,62.10
2018-04-29T23:55:05.220Z,61.80
2018-04-29T23:57:31.416Z,61.70
2018-04-29T23:59:57.637Z,62.00
